Time;durP1;ratioP1;P1;durP2;ratioP2;P2;SDS_P1;SDS_P2;PMS_P1;PMS_P2;Temp;Humidity;BMP_temperature;BMP_pressure;BME280_temperature;BME280_humidity;BME280_pressure;Samples;Min_cycle;Max_cycle;Signal;HPM_P1;HPM_P2
2021/09/08 00:00:21;;;;;;;;;;;22.20;74.00;;;;;;4391031;32;43454;-77
2021/09/08 00:02:51;;;;;;;;;;;22.20;74.10;;;;;;4391100;32;43286;-77
2021/09/08 00:05:21;;;;;;;;;;;22.20;74.10;;;;;;4391231;32;44015;-77
2021/09/08 00:07:54;;;;;;;;;;;22.10;74.20;;;;;;4390969;32;44215;-77
2021/09/08 00:10:21;;;;;;;;;;;22.10;74.20;;;;;;4391510;32;43375;-77
2021/09/08 00:12:51;;;;;;;;;;;22.10;74.20;;;;;;4377774;32;43629;-77
2021/09/08 00:15:18;;;;;;;;;;;22.00;74.30;;;;;;4391289;32;44401;-77
2021/09/08 00:17:48;;;;;;;;;;;22.00;74.30;;;;;;4377588;32;42440;-77
2021/09/08 00:20:17;;;;;;;;;;;22.00;74.50;;;;;;4378268;32;43950;-77
2021/09/08 00:22:49;;;;;;;;;;;22.00;74.60;;;;;;4391138;32;44235;-76
2021/09/08 00:25:16;;;;;;;;;;;21.90;74.60;;;;;;4377859;32;42990;-77
2021/09/08 00:27:43;;;;;;;;;;;21.90;74.70;;;;;;4391156;32;43856;-77
2021/09/08 00:30:11;;;;;;;;;;;21.90;74.80;;;;;;4391215;32;42643;-77
2021/09/08 00:32:41;;;;;;;;;;;21.90;74.80;;;;;;4377165;32;44263;-77
2021/09/08 00:35:09;;;;;;;;;;;21.80;74.90;;;;;;4391084;32;43058;-77
2021/09/08 00:37:45;;;;;;;;;;;21.80;75.00;;;;;;4391097;32;44722;-77
2021/09/08 00:40:12;;;;;;;;;;;21.80;75.20;;;;;;4391161;32;43621;-77
2021/09/08 00:42:39;;;;;;;;;;;21.80;75.30;;;;;;4376829;32;43337;-77
2021/09/08 00:45:09;;;;;;;;;;;21.80;75.30;;;;;;4377220;32;43601;-77
2021/09/08 00:47:37;;;;;;;;;;;21.80;75.30;;;;;;4390605;32;42766;-77
2021/09/08 00:50:06;;;;;;;;;;;21.80;75.40;;;;;;4390684;32;42791;-77
2021/09/08 00:52:33;;;;;;;;;;;21.80;75.50;;;;;;4390826;32;43964;-77
2021/09/08 00:55:07;;;;;;;;;;;21.80;75.60;;;;;;4390241;32;43336;-77
2021/09/08 00:57:43;;;;;;;;;;;21.80;75.60;;;;;;4377457;32;42989;-77
2021/09/08 01:00:10;;;;;;;;;;;21.80;75.60;;;;;;4390235;32;44223;-77
2021/09/08 01:02:38;;;;;;;;;;;21.80;75.70;;;;;;4376480;32;43649;-77
2021/09/08 01:05:06;;;;;;;;;;;21.80;75.80;;;;;;4376820;32;44282;-77
2021/09/08 01:07:34;;;;;;;;;;;21.80;75.80;;;;;;4377275;32;43616;-77
2021/09/08 01:10:09;;;;;;;;;;;21.80;75.80;;;;;;4390144;32;44202;-77
2021/09/08 01:12:36;;;;;;;;;;;21.80;75.90;;;;;;4391382;32;20004;-77
2021/09/08 01:15:03;;;;;;;;;;;21.80;75.80;;;;;;4389994;32;44106;-77
2021/09/08 01:17:34;;;;;;;;;;;21.80;75.90;;;;;;4376948;32;42671;-77
2021/09/08 01:20:01;;;;;;;;;;;21.70;76.00;;;;;;4389955;32;43077;-77
2021/09/08 01:22:30;;;;;;;;;;;21.70;75.90;;;;;;4389879;32;44298;-77
2021/09/08 01:24:59;;;;;;;;;;;21.70;75.90;;;;;;4376603;32;44175;-77
2021/09/08 01:27:29;;;;;;;;;;;21.70;75.80;;;;;;4376378;32;43486;-77
2021/09/08 01:29:56;;;;;;;;;;;21.70;75.80;;;;;;4376894;32;43903;-77
2021/09/08 01:32:30;;;;;;;;;;;21.70;75.80;;;;;;4376752;32;43012;-77
2021/09/08 01:34:57;;;;;;;;;;;21.60;76.00;;;;;;4390073;32;44146;-77
2021/09/08 01:37:27;;;;;;;;;;;21.60;76.00;;;;;;4376337;32;42882;-77
2021/09/08 01:39:57;;;;;;;;;;;21.60;76.20;;;;;;4376161;32;44223;-76
2021/09/08 01:42:29;;;;;;;;;;;21.60;76.10;;;;;;4389772;32;44278;-77
2021/09/08 01:45:02;;;;;;;;;;;21.60;76.30;;;;;;4376265;32;43728;-76
2021/09/08 01:47:30;;;;;;;;;;;21.60;76.40;;;;;;4376652;32;43081;-77
2021/09/08 01:49:57;;;;;;;;;;;21.60;76.50;;;;;;4376756;32;44143;-76
2021/09/08 01:52:24;;;;;;;;;;;21.50;76.40;;;;;;4389588;32;43251;-77
2021/09/08 01:54:56;;;;;;;;;;;21.50;76.50;;;;;;4375691;32;43846;-77
2021/09/08 01:57:26;;;;;;;;;;;21.50;76.40;;;;;;4376834;32;45001;-76
2021/09/08 01:59:53;;;;;;;;;;;21.50;76.40;;;;;;4389886;32;43245;-77
2021/09/08 02:02:20;;;;;;;;;;;21.50;76.50;;;;;;4389360;32;44662;-76
2021/09/08 02:04:50;;;;;;;;;;;21.50;76.50;;;;;;4376137;32;43875;-76
2021/09/08 02:07:20;;;;;;;;;;;21.50;76.50;;;;;;4376694;32;43293;-77
2021/09/08 02:09:50;;;;;;;;;;;21.50;76.50;;;;;;4375959;32;43562;-77
2021/09/08 02:12:20;;;;;;;;;;;21.50;76.40;;;;;;4376768;32;44223;-77
2021/09/08 02:14:47;;;;;;;;;;;21.50;76.50;;;;;;4389574;32;42863;-78
2021/09/08 02:17:19;;;;;;;;;;;21.50;76.50;;;;;;4389559;32;42883;-77
2021/09/08 02:19:49;;;;;;;;;;;21.50;76.60;;;;;;4389450;32;42315;-77
2021/09/08 02:22:16;;;;;;;;;;;21.40;76.60;;;;;;4389445;32;43940;-77
2021/09/08 02:24:43;;;;;;;;;;;21.40;76.60;;;;;;4389404;32;42770;-77
2021/09/08 02:27:11;;;;;;;;;;;21.40;76.50;;;;;;4389362;32;44088;-77
2021/09/08 02:29:40;;;;;;;;;;;21.40;76.60;;;;;;4389367;32;43225;-77
2021/09/08 02:32:13;;;;;;;;;;;21.40;76.60;;;;;;4376034;32;43638;-77
2021/09/08 02:34:40;;;;;;;;;;;21.40;76.60;;;;;;4389794;32;44271;-77
2021/09/08 02:37:07;;;;;;;;;;;21.40;76.60;;;;;;4376269;32;43282;-77
2021/09/08 02:39:34;;;;;;;;;;;21.40;76.70;;;;;;4389716;32;43060;-77
2021/09/08 02:42:05;;;;;;;;;;;21.40;76.80;;;;;;4389787;32;43201;-77
2021/09/08 02:44:32;;;;;;;;;;;21.40;76.70;;;;;;4376925;32;20389;-77
2021/09/08 02:47:02;;;;;;;;;;;21.40;76.60;;;;;;4375674;32;43827;-77
2021/09/08 02:49:29;;;;;;;;;;;21.40;76.70;;;;;;4389231;32;43956;-77
2021/09/08 02:51:56;;;;;;;;;;;21.40;76.70;;;;;;4389556;32;43798;-78
2021/09/08 02:54:23;;;;;;;;;;;21.40;76.70;;;;;;4375605;32;44371;-77
2021/09/08 02:56:50;;;;;;;;;;;21.40;76.60;;;;;;4389319;32;43766;-77
2021/09/08 02:59:17;;;;;;;;;;;21.30;76.70;;;;;;4389100;32;43547;-78
2021/09/08 03:01:44;;;;;;;;;;;21.30;76.70;;;;;;4375913;32;44040;-77
2021/09/08 03:04:12;;;;;;;;;;;21.30;76.70;;;;;;4389751;32;43487;-77
2021/09/08 03:06:47;;;;;;;;;;;21.30;76.70;;;;;;4378760;32;43607;-78
2021/09/08 03:09:15;;;;;;;;;;;21.20;76.70;;;;;;4392409;32;44278;-77
2021/09/08 03:11:42;;;;;;;;;;;21.20;76.80;;;;;;4378384;32;43925;-77
2021/09/08 03:14:09;;;;;;;;;;;21.20;76.80;;;;;;4391744;32;42260;-77
2021/09/08 03:16:37;;;;;;;;;;;21.20;77.00;;;;;;4392266;32;43881;-77
2021/09/08 03:19:04;;;;;;;;;;;21.20;77.00;;;;;;4378622;32;44243;-77
2021/09/08 03:21:31;;;;;;;;;;;21.20;76.90;;;;;;4378545;32;43049;-78
2021/09/08 03:23:58;;;;;;;;;;;21.20;77.00;;;;;;4392601;32;44274;-77
2021/09/08 03:26:25;;;;;;;;;;;21.10;76.80;;;;;;4391801;32;42637;-77
2021/09/08 03:28:55;;;;;;;;;;;21.10;76.80;;;;;;4378262;32;44143;-77
2021/09/08 03:31:22;;;;;;;;;;;21.10;76.90;;;;;;4391431;32;44982;-77
2021/09/08 03:33:49;;;;;;;;;;;21.10;77.00;;;;;;4377901;32;44019;-78
2021/09/08 03:36:19;;;;;;;;;;;21.10;77.00;;;;;;4391345;32;44601;-77
2021/09/08 03:38:49;;;;;;;;;;;21.10;77.00;;;;;;4391408;32;43386;-77
2021/09/08 03:41:18;;;;;;;;;;;21.10;76.90;;;;;;4378271;32;42693;-77
2021/09/08 03:43:45;;;;;;;;;;;21.10;76.80;;;;;;4378379;32;42997;-77
2021/09/08 03:46:12;;;;;;;;;;;21.10;76.80;;;;;;4391805;32;43057;-77
2021/09/08 03:48:42;;;;;;;;;;;21.10;76.90;;;;;;4377730;32;43753;-77
2021/09/08 03:51:16;;;;;;;;;;;21.00;76.80;;;;;;4377625;32;44042;-77
2021/09/08 03:53:43;;;;;;;;;;;21.00;76.80;;;;;;4378073;32;46017;-77
2021/09/08 03:56:10;;;;;;;;;;;21.00;77.00;;;;;;4391450;32;42590;-77
2021/09/08 03:58:37;;;;;;;;;;;20.90;77.00;;;;;;4391534;32;42926;-77
2021/09/08 04:01:06;;;;;;;;;;;20.90;77.10;;;;;;4391472;32;43988;-78
2021/09/08 04:03:34;;;;;;;;;;;20.90;77.00;;;;;;4377762;32;43466;-78
2021/09/08 04:06:01;;;;;;;;;;;20.90;77.20;;;;;;4377803;32;44118;-78
2021/09/08 04:08:28;;;;;;;;;;;20.90;77.20;;;;;;4391221;32;43784;-79
2021/09/08 04:10:55;;;;;;;;;;;20.90;77.40;;;;;;4391316;32;42699;-78
2021/09/08 04:13:25;;;;;;;;;;;20.90;77.50;;;;;;4390899;32;44729;-78
2021/09/08 04:15:55;;;;;;;;;;;20.90;77.40;;;;;;4391734;32;20008;-78
2021/09/08 04:18:22;;;;;;;;;;;20.90;77.40;;;;;;4390821;32;44064;-78
2021/09/08 04:20:49;;;;;;;;;;;20.90;77.30;;;;;;4390780;32;44249;-77
2021/09/08 04:23:21;;;;;;;;;;;20.90;77.20;;;;;;4377577;32;42372;-78
2021/09/08 04:25:49;;;;;;;;;;;20.90;77.10;;;;;;4377921;32;43231;-78
2021/09/08 04:28:16;;;;;;;;;;;20.90;77.10;;;;;;4390707;32;42929;-78
2021/09/08 04:30:43;;;;;;;;;;;20.80;77.10;;;;;;4390831;32;42811;-78
2021/09/08 04:33:10;;;;;;;;;;;20.80;77.20;;;;;;4391211;32;43623;-77
2021/09/08 04:35:39;;;;;;;;;;;20.80;77.20;;;;;;4390715;32;44556;-78
2021/09/08 04:38:09;;;;;;;;;;;20.80;77.10;;;;;;4377357;32;44059;-78
2021/09/08 04:40:37;;;;;;;;;;;20.80;77.40;;;;;;4376975;32;42315;-78
2021/09/08 04:43:06;;;;;;;;;;;20.80;77.40;;;;;;4376943;32;42611;-78
2021/09/08 04:45:33;;;;;;;;;;;20.70;77.40;;;;;;4390532;32;42665;-78
2021/09/08 04:48:00;;;;;;;;;;;20.70;77.40;;;;;;4377086;32;44156;-78
2021/09/08 04:50:30;;;;;;;;;;;20.80;77.50;;;;;;4390800;32;43142;-78
2021/09/08 04:52:57;;;;;;;;;;;20.70;77.30;;;;;;4377213;32;43228;-78
2021/09/08 04:55:24;;;;;;;;;;;20.70;77.10;;;;;;4390909;32;44048;-78
2021/09/08 04:57:51;;;;;;;;;;;20.70;77.10;;;;;;4390235;32;43498;-78
2021/09/08 05:00:18;;;;;;;;;;;20.70;77.10;;;;;;4390331;32;42747;-78
2021/09/08 05:02:45;;;;;;;;;;;20.70;77.30;;;;;;4390386;32;44314;-78
2021/09/08 05:05:15;;;;;;;;;;;20.60;77.30;;;;;;4390265;32;42308;-77
2021/09/08 05:07:45;;;;;;;;;;;20.60;77.10;;;;;;4376551;32;42095;-78
2021/09/08 05:10:12;;;;;;;;;;;20.60;77.20;;;;;;4390537;32;44278;-78
2021/09/08 05:12:39;;;;;;;;;;;20.60;77.20;;;;;;4390524;32;44275;-78
2021/09/08 05:15:09;;;;;;;;;;;20.60;77.40;;;;;;4390238;32;44285;-78
2021/09/08 05:17:36;;;;;;;;;;;20.60;78.20;;;;;;4376901;32;42989;-78
2021/09/08 05:20:04;;;;;;;;;;;20.60;77.40;;;;;;4376516;32;43489;-77
2021/09/08 05:22:34;;;;;;;;;;;20.50;77.30;;;;;;4376635;32;43851;-78
2021/09/08 05:25:07;;;;;;;;;;;20.50;77.10;;;;;;4390505;32;43968;-78
2021/09/08 05:27:37;;;;;;;;;;;20.50;77.10;;;;;;4389969;32;42298;-78
2021/09/08 05:30:04;;;;;;;;;;;20.50;77.30;;;;;;4376321;32;44056;-78
2021/09/08 05:32:31;;;;;;;;;;;20.40;77.30;;;;;;4389804;32;44312;-77
2021/09/08 05:34:58;;;;;;;;;;;20.40;77.40;;;;;;4389839;32;44058;-78
2021/09/08 05:37:28;;;;;;;;;;;20.30;77.50;;;;;;4376129;32;43486;-77
2021/09/08 05:39:55;;;;;;;;;;;20.30;77.70;;;;;;4390425;32;43685;-78
2021/09/08 05:42:22;;;;;;;;;;;20.30;77.50;;;;;;4376460;32;43334;-77
2021/09/08 05:44:51;;;;;;;;;;;20.30;77.60;;;;;;4376708;32;43170;-77
2021/09/08 05:47:19;;;;;;;;;;;20.30;77.60;;;;;;4390805;32;20467;-77
2021/09/08 05:49:49;;;;;;;;;;;20.20;77.70;;;;;;4389566;32;44316;-78
2021/09/08 05:52:16;;;;;;;;;;;20.20;77.80;;;;;;4390200;32;43029;-77
2021/09/08 05:54:43;;;;;;;;;;;20.20;77.90;;;;;;4389599;32;44219;-77
2021/09/08 05:57:10;;;;;;;;;;;20.10;77.90;;;;;;4389838;32;42856;-77
2021/09/08 05:59:37;;;;;;;;;;;20.10;78.10;;;;;;4390098;32;43285;-77
2021/09/08 06:02:05;;;;;;;;;;;20.20;78.30;;;;;;4389580;32;43344;-78
2021/09/08 06:04:32;;;;;;;;;;;20.10;78.30;;;;;;4389962;32;44427;-78
2021/09/08 06:07:05;;;;;;;;;;;20.20;78.50;;;;;;4390052;32;43285;-77
2021/09/08 06:09:34;;;;;;;;;;;20.10;78.50;;;;;;4389949;32;44936;-77
2021/09/08 06:12:01;;;;;;;;;;;20.10;78.60;;;;;;4389757;32;42950;-77
2021/09/08 06:14:31;;;;;;;;;;;20.10;78.80;;;;;;4389918;32;43183;-77
2021/09/08 06:17:01;;;;;;;;;;;20.10;78.90;;;;;;4389417;32;44084;-77
2021/09/08 06:19:28;;;;;;;;;;;20.20;79.20;;;;;;4389538;32;43865;-78
2021/09/08 06:21:55;;;;;;;;;;;20.10;79.10;;;;;;4389357;32;42755;-77
2021/09/08 06:24:22;;;;;;;;;;;20.20;79.30;;;;;;4389633;32;44153;-78
2021/09/08 06:26:49;;;;;;;;;;;20.20;79.40;;;;;;4375942;32;45820;-78
2021/09/08 06:29:16;;;;;;;;;;;20.20;79.50;;;;;;4389462;32;43080;-77
2021/09/08 06:31:46;;;;;;;;;;;20.20;79.60;;;;;;4389288;32;44258;-77
2021/09/08 06:34:13;;;;;;;;;;;20.20;79.70;;;;;;4376350;32;43865;-77
2021/09/08 06:36:40;;;;;;;;;;;20.20;79.70;;;;;;4375846;32;43085;-77
2021/09/08 06:39:07;;;;;;;;;;;20.20;79.80;;;;;;4389666;32;44105;-77
2021/09/08 06:41:34;;;;;;;;;;;20.20;79.90;;;;;;4379042;32;42310;-77
2021/09/08 06:44:02;;;;;;;;;;;20.30;80.00;;;;;;4392592;32;42330;-78
2021/09/08 06:46:29;;;;;;;;;;;20.30;80.10;;;;;;4392171;32;43957;-77
2021/09/08 06:48:58;;;;;;;;;;;20.30;80.20;;;;;;4378714;32;42682;-78
2021/09/08 06:51:25;;;;;;;;;;;20.30;80.30;;;;;;4392550;32;43030;-77
2021/09/08 06:53:55;;;;;;;;;;;20.30;80.40;;;;;;4392368;32;43455;-77
2021/09/08 06:56:22;;;;;;;;;;;20.30;80.50;;;;;;4392348;32;43098;-77
2021/09/08 06:58:55;;;;;;;;;;;20.40;80.70;;;;;;4391895;32;45846;-77
2021/09/08 07:01:22;;;;;;;;;;;20.40;80.90;;;;;;4391670;32;44586;-77
2021/09/08 07:03:49;;;;;;;;;;;20.40;80.90;;;;;;4376050;32;44000;-77
2021/09/08 07:06:16;;;;;;;;;;;20.40;81.10;;;;;;4376850;32;42715;-77
2021/09/08 07:08:43;;;;;;;;;;;20.40;81.10;;;;;;4376895;32;42648;-77
2021/09/08 07:11:13;;;;;;;;;;;20.50;81.20;;;;;;4376757;32;43758;-77
2021/09/08 07:13:40;;;;;;;;;;;20.50;81.30;;;;;;4377223;32;44350;-77
2021/09/08 07:16:07;;;;;;;;;;;20.50;81.40;;;;;;4376863;32;43714;-77
2021/09/08 07:18:35;;;;;;;;;;;20.50;81.50;;;;;;4375587;32;44884;-77
2021/09/08 07:21:03;;;;;;;;;;;20.50;81.70;;;;;;4375998;32;43092;-77
2021/09/08 07:23:30;;;;;;;;;;;20.60;81.80;;;;;;4376174;32;43917;-77
2021/09/08 07:25:58;;;;;;;;;;;20.60;81.80;;;;;;4376916;32;43371;-77
2021/09/08 07:28:28;;;;;;;;;;;20.60;81.90;;;;;;4377000;32;43912;-78
2021/09/08 07:30:55;;;;;;;;;;;20.60;81.90;;;;;;4375438;32;42764;-77
2021/09/08 07:33:23;;;;;;;;;;;20.60;82.10;;;;;;4375918;32;45238;-78
2021/09/08 07:35:50;;;;;;;;;;;20.60;82.20;;;;;;4376740;32;42628;-78
2021/09/08 07:38:19;;;;;;;;;;;20.70;82.40;;;;;;4376978;32;43156;-78
2021/09/08 07:40:47;;;;;;;;;;;20.70;82.40;;;;;;4376865;32;44278;-77
2021/09/08 07:43:14;;;;;;;;;;;20.70;82.60;;;;;;4376734;32;43202;-77
2021/09/08 07:45:46;;;;;;;;;;;20.70;82.60;;;;;;4376649;32;43262;-77
2021/09/08 07:48:13;;;;;;;;;;;20.70;82.60;;;;;;4376214;32;43028;-77
2021/09/08 07:50:41;;;;;;;;;;;20.70;82.70;;;;;;4376325;32;43877;-77
2021/09/08 07:53:10;;;;;;;;;;;20.80;82.80;;;;;;4375744;32;43266;-78
2021/09/08 07:55:37;;;;;;;;;;;20.80;83.10;;;;;;4376239;32;42997;-77
2021/09/08 07:58:07;;;;;;;;;;;20.80;83.10;;;;;;4375156;32;45114;-78
2021/09/08 08:00:36;;;;;;;;;;;20.80;83.20;;;;;;4375610;32;43893;-78
2021/09/08 08:03:04;;;;;;;;;;;20.80;83.30;;;;;;4375097;32;43242;-78
2021/09/08 08:05:32;;;;;;;;;;;20.80;83.30;;;;;;4375602;32;43490;-77
2021/09/08 08:07:59;;;;;;;;;;;20.90;83.30;;;;;;4375235;32;44258;-78
2021/09/08 08:10:31;;;;;;;;;;;20.90;83.30;;;;;;4375612;32;43189;-78
2021/09/08 08:12:58;;;;;;;;;;;20.90;83.30;;;;;;4375978;32;44539;-78
2021/09/08 08:15:25;;;;;;;;;;;20.90;83.30;;;;;;4374984;32;43918;-77
2021/09/08 08:17:52;;;;;;;;;;;20.90;83.30;;;;;;4374743;32;43927;-77
2021/09/08 08:20:20;;;;;;;;;;;20.90;83.30;;;;;;4376193;32;44141;-77
2021/09/08 08:22:47;;;;;;;;;;;20.90;83.30;;;;;;4375972;32;43855;-78
2021/09/08 08:25:16;;;;;;;;;;;21.00;83.20;;;;;;4374981;32;42345;-78
2021/09/08 08:27:43;;;;;;;;;;;20.90;83.30;;;;;;4376415;32;43527;-78
2021/09/08 08:30:11;;;;;;;;;;;20.90;83.30;;;;;;4376180;32;43165;-77
2021/09/08 08:32:39;;;;;;;;;;;21.00;83.50;;;;;;4375663;32;42711;-77
2021/09/08 08:35:09;;;;;;;;;;;21.00;83.40;;;;;;4374909;32;44239;-78
2021/09/08 08:37:40;;;;;;;;;;;21.00;83.30;;;;;;4376005;32;43334;-77
2021/09/08 08:40:11;;;;;;;;;;;21.10;83.30;;;;;;4375109;32;42856;-77
2021/09/08 08:42:38;;;;;;;;;;;21.10;83.20;;;;;;4375534;32;43511;-77
2021/09/08 08:45:11;;;;;;;;;;;21.10;83.30;;;;;;4375916;32;43300;-78
2021/09/08 08:47:38;;;;;;;;;;;21.10;83.30;;;;;;4375605;32;43506;-77
2021/09/08 08:50:09;;;;;;;;;;;21.10;83.30;;;;;;4376072;32;43713;-78
2021/09/08 08:52:37;;;;;;;;;;;21.10;83.40;;;;;;4375758;32;43473;-78
2021/09/08 08:55:05;;;;;;;;;;;21.10;83.40;;;;;;4375848;32;44142;-78
2021/09/08 08:57:32;;;;;;;;;;;21.10;83.30;;;;;;4375654;32;42642;-77
2021/09/08 09:00:02;;;;;;;;;;;21.20;83.40;;;;;;4375897;32;43893;-78
2021/09/08 09:02:31;;;;;;;;;;;21.20;83.40;;;;;;4373918;32;42722;-77
2021/09/08 09:04:59;;;;;;;;;;;21.20;83.40;;;;;;4375344;32;44214;-77
2021/09/08 09:07:28;;;;;;;;;;;21.20;83.30;;;;;;4374517;32;44087;-78
2021/09/08 09:09:59;;;;;;;;;;;21.20;83.30;;;;;;4375071;32;44166;-77
2021/09/08 09:12:35;;;;;;;;;;;21.30;83.30;;;;;;4374543;32;43166;-78
2021/09/08 09:15:03;;;;;;;;;;;21.30;83.20;;;;;;4375348;32;44616;-78
2021/09/08 09:17:31;;;;;;;;;;;21.30;83.20;;;;;;4375089;32;42569;-77
2021/09/08 09:20:01;;;;;;;;;;;21.30;83.20;;;;;;4375302;32;42108;-77
2021/09/08 09:22:42;;;;;;;;;;;21.40;83.20;;;;;;4374121;32;44061;-77
2021/09/08 09:25:11;;;;;;;;;;;21.40;83.10;;;;;;4375350;32;43478;-78
2021/09/08 09:27:43;;;;;;;;;;;21.30;83.00;;;;;;4374897;32;42880;-78
2021/09/08 09:30:11;;;;;;;;;;;21.40;83.00;;;;;;4375468;32;43942;-77
2021/09/08 09:32:40;;;;;;;;;;;21.40;82.90;;;;;;4375113;32;42591;-78
2021/09/08 09:35:08;;;;;;;;;;;21.40;82.90;;;;;;4375326;32;43928;-77
2021/09/08 09:37:44;;;;;;;;;;;21.40;82.90;;;;;;4375145;32;41983;-78
2021/09/08 09:40:12;;;;;;;;;;;21.50;82.90;;;;;;4375097;32;43184;-78
2021/09/08 09:42:40;;;;;;;;;;;21.50;82.80;;;;;;4373793;32;44250;-78
2021/09/08 09:45:08;;;;;;;;;;;21.50;82.70;;;;;;4375421;32;42675;-77
2021/09/08 09:47:37;;;;;;;;;;;21.50;82.70;;;;;;4375170;32;44405;-77
2021/09/08 09:50:06;;;;;;;;;;;21.50;82.50;;;;;;4376329;32;20067;-78
2021/09/08 09:52:34;;;;;;;;;;;21.60;82.60;;;;;;4373669;32;44198;-78
2021/09/08 09:55:03;;;;;;;;;;;21.60;82.60;;;;;;4373652;32;43092;-77
2021/09/08 09:57:30;;;;;;;;;;;21.60;82.50;;;;;;4375155;32;46028;-78
2021/09/08 09:59:58;;;;;;;;;;;21.60;82.20;;;;;;4374586;32;42761;-77
2021/09/08 10:02:26;;;;;;;;;;;21.60;82.30;;;;;;4380929;32;43855;-78
2021/09/08 10:04:54;;;;;;;;;;;21.60;82.20;;;;;;4390015;32;43134;-78
2021/09/08 10:07:24;;;;;;;;;;;21.70;82.00;;;;;;4390309;32;43551;-78
2021/09/08 10:09:56;;;;;;;;;;;21.70;82.10;;;;;;4389736;32;42746;-78
2021/09/08 10:12:30;;;;;;;;;;;21.70;82.10;;;;;;4389827;32;43247;-78
2021/09/08 10:15:00;;;;;;;;;;;21.70;82.10;;;;;;4391169;32;43532;-78
2021/09/08 10:17:33;;;;;;;;;;;21.80;81.80;;;;;;4379113;32;43927;-78
2021/09/08 10:20:03;;;;;;;;;;;21.80;81.80;;;;;;4379270;32;43540;-78
2021/09/08 10:22:31;;;;;;;;;;;21.80;81.80;;;;;;4393286;32;43862;-78
2021/09/08 10:25:06;;;;;;;;;;;21.80;81.80;;;;;;4392955;32;45486;-78
2021/09/08 10:27:34;;;;;;;;;;;21.80;81.70;;;;;;4392953;32;44536;-78
2021/09/08 10:30:02;;;;;;;;;;;21.80;81.50;;;;;;4378880;32;43001;-79
2021/09/08 10:32:30;;;;;;;;;;;21.80;81.50;;;;;;4392493;32;42763;-78
2021/09/08 10:34:57;;;;;;;;;;;21.80;81.50;;;;;;4378869;32;43283;-78
2021/09/08 10:37:24;;;;;;;;;;;21.90;81.50;;;;;;4392793;32;43040;-78
2021/09/08 10:39:53;;;;;;;;;;;21.90;81.50;;;;;;4392799;32;43375;-78
2021/09/08 10:42:40;;;;;;;;;;;21.90;81.40;;;;;;4379072;32;44215;-79
2021/09/08 10:45:28;;;;;;;;;;;21.90;81.30;;;;;;4392708;32;43196;-78
2021/09/08 10:48:00;;;;;;;;;;;21.90;80.50;;;;;;4379065;32;44066;-78
2021/09/08 10:50:45;;;;;;;;;;;22.00;81.20;;;;;;4392729;32;44194;-78
2021/09/08 10:53:20;;;;;;;;;;;22.00;81.10;;;;;;4379035;32;42628;-77
2021/09/08 10:55:48;;;;;;;;;;;22.10;81.10;;;;;;4392676;32;44021;-78
2021/09/08 10:58:16;;;;;;;;;;;22.10;81.10;;;;;;4392727;32;43185;-78
2021/09/08 11:00:44;;;;;;;;;;;22.10;81.10;;;;;;4378846;32;43796;-77
2021/09/08 11:03:14;;;;;;;;;;;22.10;81.00;;;;;;4391734;32;42976;-78
2021/09/08 11:05:48;;;;;;;;;;;22.10;81.00;;;;;;4378434;32;42876;-78
2021/09/08 11:08:19;;;;;;;;;;;22.20;81.10;;;;;;4378430;32;42861;-79
2021/09/08 11:10:46;;;;;;;;;;;22.20;80.90;;;;;;4391852;32;43903;-78
2021/09/08 11:13:23;;;;;;;;;;;22.20;80.70;;;;;;4378616;32;43575;-79
2021/09/08 11:15:50;;;;;;;;;;;22.20;80.90;;;;;;4378695;32;43819;-79
2021/09/08 11:18:17;;;;;;;;;;;22.20;80.50;;;;;;4391745;32;43564;-78
2021/09/08 11:20:44;;;;;;;;;;;22.30;80.30;;;;;;4392517;32;43248;-79
2021/09/08 11:23:12;;;;;;;;;;;22.30;80.40;;;;;;4378417;32;43290;-79
2021/09/08 11:25:47;;;;;;;;;;;22.30;80.60;;;;;;4378499;32;43387;-78
2021/09/08 11:28:14;;;;;;;;;;;22.40;80.30;;;;;;4392178;32;43257;-79
2021/09/08 11:30:42;;;;;;;;;;;22.40;80.10;;;;;;4391533;32;42782;-79
2021/09/08 11:33:11;;;;;;;;;;;22.40;80.30;;;;;;4392076;32;43247;-79
2021/09/08 11:35:42;;;;;;;;;;;22.50;79.90;;;;;;4391696;32;42904;-79
2021/09/08 11:38:19;;;;;;;;;;;22.50;80.20;;;;;;4391932;32;44019;-78
2021/09/08 11:40:48;;;;;;;;;;;22.60;80.20;;;;;;4391988;32;43059;-78
2021/09/08 11:43:33;;;;;;;;;;;22.60;80.00;;;;;;4378206;32;42257;-79
2021/09/08 11:46:24;;;;;;;;;;;22.60;80.00;;;;;;4378134;32;44167;-79
2021/09/08 11:48:53;;;;;;;;;;;22.60;79.60;;;;;;4383892;32;43739;-79
2021/09/08 11:51:21;;;;;;;;;;;22.70;79.60;;;;;;4391685;32;43382;-79
2021/09/08 11:53:49;;;;;;;;;;;22.70;79.70;;;;;;4391451;32;42587;-79
2021/09/08 11:56:17;;;;;;;;;;;22.70;79.50;;;;;;4377636;32;43293;-79
2021/09/08 11:58:48;;;;;;;;;;;22.70;79.60;;;;;;4391068;32;43883;-78
2021/09/08 12:01:15;;;;;;;;;;;22.70;79.40;;;;;;4391723;32;44459;-78
2021/09/08 12:03:50;;;;;;;;;;;22.80;79.30;;;;;;4377818;32;43067;-78
2021/09/08 12:06:21;;;;;;;;;;;22.80;79.00;;;;;;4391518;32;44511;-79
2021/09/08 12:08:59;;;;;;;;;;;22.80;78.90;;;;;;4391192;32;42661;-78
2021/09/08 12:11:45;;;;;;;;;;;22.80;78.50;;;;;;4391537;32;43854;-79
2021/09/08 12:14:15;;;;;;;;;;;22.80;78.50;;;;;;4390972;32;44240;-79
2021/09/08 12:16:43;;;;;;;;;;;22.90;78.50;;;;;;4390878;32;45777;-79
2021/09/08 12:19:14;;;;;;;;;;;22.90;78.30;;;;;;4391299;32;43786;-79
2021/09/08 12:21:42;;;;;;;;;;;23.00;78.40;;;;;;4377602;32;43056;-78
2021/09/08 12:24:19;;;;;;;;;;;23.00;78.40;;;;;;4392133;32;19997;-78
2021/09/08 12:26:47;;;;;;;;;;;23.00;78.10;;;;;;4377791;32;43307;-79
2021/09/08 12:29:14;;;;;;;;;;;23.00;78.40;;;;;;4391159;32;43806;-78
2021/09/08 12:31:57;;;;;;;;;;;23.00;78.10;;;;;;4377317;32;43588;-79
2021/09/08 12:34:41;;;;;;;;;;;23.10;78.10;;;;;;4377216;32;43522;-79
2021/09/08 12:37:08;;;;;;;;;;;23.10;77.20;;;;;;4377150;32;43840;-79
2021/09/08 12:39:48;;;;;;;;;;;23.10;77.50;;;;;;4390997;32;44225;-79
2021/09/08 12:42:22;;;;;;;;;;;23.20;77.60;;;;;;4391067;32;43845;-78
2021/09/08 12:44:50;;;;;;;;;;;23.20;77.40;;;;;;4390794;32;44478;-79
2021/09/08 12:47:18;;;;;;;;;;;23.20;77.50;;;;;;4390899;32;43805;-79
2021/09/08 12:49:45;;;;;;;;;;;23.20;76.80;;;;;;4376915;32;43358;-78
2021/09/08 12:52:17;;;;;;;;;;;23.30;77.50;;;;;;4377255;32;44350;-79
2021/09/08 12:54:45;;;;;;;;;;;23.30;76.70;;;;;;4392031;32;19996;-79
2021/09/08 12:57:13;;;;;;;;;;;23.30;76.60;;;;;;4377345;32;43863;-79
2021/09/08 12:59:41;;;;;;;;;;;23.40;76.60;;;;;;4377286;32;44199;-79
2021/09/08 13:02:12;;;;;;;;;;;23.40;76.10;;;;;;4377368;32;43895;-78
2021/09/08 13:04:43;;;;;;;;;;;23.40;75.80;;;;;;4377121;32;43694;-79
2021/09/08 13:07:10;;;;;;;;;;;23.40;76.00;;;;;;4390773;32;44858;-79
2021/09/08 13:09:38;;;;;;;;;;;23.50;76.00;;;;;;4390431;32;44311;-80
2021/09/08 13:12:05;;;;;;;;;;;23.50;75.60;;;;;;4390419;32;43422;-80
2021/09/08 13:14:40;;;;;;;;;;;23.50;76.10;;;;;;4390210;32;43819;-79
2021/09/08 13:17:07;;;;;;;;;;;23.60;76.00;;;;;;4376906;32;42997;-79
2021/09/08 13:19:35;;;;;;;;;;;23.60;75.80;;;;;;4376691;32;43984;-79
2021/09/08 13:22:03;;;;;;;;;;;23.60;76.00;;;;;;4376530;32;43392;-79
2021/09/08 13:24:35;;;;;;;;;;;23.70;75.60;;;;;;4390367;32;43241;-79
2021/09/08 13:27:03;;;;;;;;;;;23.70;75.30;;;;;;4377156;32;43835;-79
2021/09/08 13:29:30;;;;;;;;;;;23.70;75.50;;;;;;4390306;32;43339;-79
2021/09/08 13:31:57;;;;;;;;;;;23.80;75.00;;;;;;4376827;32;43872;-79
2021/09/08 13:34:25;;;;;;;;;;;23.80;74.80;;;;;;4390329;32;44260;-78
2021/09/08 13:36:52;;;;;;;;;;;23.80;74.40;;;;;;4389925;32;43060;-80
2021/09/08 13:39:23;;;;;;;;;;;23.90;74.70;;;;;;4389964;32;43045;-79
2021/09/08 13:41:50;;;;;;;;;;;23.90;74.20;;;;;;4390163;32;42838;-78
2021/09/08 13:44:18;;;;;;;;;;;24.00;74.40;;;;;;4390184;32;43590;-79
2021/09/08 13:46:45;;;;;;;;;;;24.00;74.00;;;;;;4389840;32;43347;-79
2021/09/08 13:49:15;;;;;;;;;;;24.00;74.20;;;;;;4389196;32;42617;-79
2021/09/08 13:51:42;;;;;;;;;;;24.10;74.40;;;;;;4376121;32;43114;-79
2021/09/08 13:54:09;;;;;;;;;;;24.10;74.20;;;;;;4389813;32;43558;-79
2021/09/08 13:56:36;;;;;;;;;;;24.10;74.10;;;;;;4390171;32;43288;-79
2021/09/08 13:59:04;;;;;;;;;;;24.20;74.30;;;;;;4390066;32;42851;-79
2021/09/08 14:01:31;;;;;;;;;;;24.20;74.50;;;;;;4389581;32;42694;-79
2021/09/08 14:03:58;;;;;;;;;;;24.30;74.40;;;;;;4376149;32;44286;-79
2021/09/08 14:06:25;;;;;;;;;;;24.30;74.50;;;;;;4389520;32;43064;-79
2021/09/08 14:08:55;;;;;;;;;;;24.40;74.40;;;;;;4389931;32;44672;-79
2021/09/08 14:11:22;;;;;;;;;;;24.40;74.00;;;;;;4376034;32;43256;-78
2021/09/08 14:13:49;;;;;;;;;;;24.40;73.70;;;;;;4376225;32;44081;-79
2021/09/08 14:16:16;;;;;;;;;;;24.50;73.30;;;;;;4376451;32;43561;-79
2021/09/08 14:18:44;;;;;;;;;;;24.50;72.70;;;;;;4389427;32;43848;-79
2021/09/08 14:21:11;;;;;;;;;;;24.50;72.70;;;;;;4389331;32;45064;-79
2021/09/08 14:23:38;;;;;;;;;;;24.50;72.60;;;;;;4375877;32;42860;-79
2021/09/08 14:26:05;;;;;;;;;;;24.60;72.60;;;;;;4389847;32;44952;-79